Time;durP1;ratioP1;P1;durP2;ratioP2;P2;SDS_P1;SDS_P2;PMS_P1;PMS_P2;Temp;Humidity;BMP_temperature;BMP_pressure;BME280_temperature;BME280_humidity;BME280_pressure;Samples;Min_cycle;Max_cycle;Signal;HPM_P1;HPM_P2
2023/07/25 00:02:25;;;;;;;22.65;10.77;;;22.20;99.90;;;;;;5081412;28;20150;-78
2023/07/25 00:04:53;;;;;;;21.10;10.63;;;22.10;99.90;;;;;;5086533;28;20416;-77
2023/07/25 00:07:20;;;;;;;20.88;10.50;;;22.10;99.90;;;;;;5092929;28;20225;-79
2023/07/25 00:09:50;;;;;;;21.65;10.30;;;22.20;99.90;;;;;;5093973;28;20043;-76
2023/07/25 00:12:19;;;;;;;19.63;8.90;;;22.20;99.90;;;;;;5093763;28;20048;-76
2023/07/25 00:14:46;;;;;;;21.42;9.55;;;22.20;99.90;;;;;;5075886;28;20052;-78
2023/07/25 00:17:13;;;;;;;17.02;9.50;;;22.10;99.90;;;;;;5070691;28;20049;-79
2023/07/25 00:19:41;;;;;;;26.17;8.90;;;22.20;99.90;;;;;;5071308;28;20048;-77
2023/07/25 00:22:08;;;;;;;22.40;9.02;;;22.20;99.90;;;;;;5067295;28;20044;-78
2023/07/25 00:24:36;;;;;;;21.58;9.48;;;22.10;99.90;;;;;;5069352;28;20048;-77
2023/07/25 00:27:03;;;;;;;24.38;9.48;;;22.10;99.90;;;;;;5068187;28;20041;-76
2023/07/25 00:29:32;;;;;;;20.60;10.20;;;22.10;99.90;;;;;;5068635;28;20090;-77
2023/07/25 00:32:00;;;;;;;20.45;10.73;;;22.10;99.90;;;;;;5067376;28;20051;-77
2023/07/25 00:34:27;;;;;;;20.80;10.40;;;22.00;99.90;;;;;;5067168;28;20470;-79
2023/07/25 00:36:55;;;;;;;23.17;10.75;;;22.00;99.90;;;;;;5067564;28;20056;-76
2023/07/25 00:39:23;;;;;;;24.73;9.77;;;21.90;99.90;;;;;;5068778;28;20036;-78
2023/07/25 00:41:50;;;;;;;23.48;10.63;;;22.00;99.90;;;;;;5074925;28;20068;-79
2023/07/25 00:44:18;;;;;;;17.20;9.50;;;22.10;99.90;;;;;;5067097;28;20106;-78
2023/07/25 00:46:47;;;;;;;17.50;9.52;;;22.10;99.90;;;;;;5067103;28;20474;-75
2023/07/25 00:49:14;;;;;;;23.23;9.15;;;22.20;99.90;;;;;;5066366;28;20045;-78
2023/07/25 00:51:42;;;;;;;19.83;9.38;;;22.20;99.90;;;;;;5067157;28;20066;-77
2023/07/25 00:54:09;;;;;;;21.58;9.50;;;22.20;99.90;;;;;;5069547;28;20047;-78
2023/07/25 00:56:37;;;;;;;19.60;9.27;;;22.20;99.90;;;;;;5066643;28;20063;-77
2023/07/25 00:59:05;;;;;;;23.02;8.80;;;22.30;99.90;;;;;;5057143;28;20052;-80
2023/07/25 01:01:32;;;;;;;23.92;9.93;;;22.40;99.90;;;;;;5067923;28;20047;-77
2023/07/25 01:04:01;;;;;;;17.90;9.30;;;22.40;99.90;;;;;;5065660;28;20084;-75
2023/07/25 01:06:30;;;;;;;23.30;12.13;;;22.50;99.90;;;;;;5067733;28;20550;-78
2023/07/25 01:08:58;;;;;;;23.77;9.40;;;22.30;99.90;;;;;;5066733;28;20087;-77
2023/07/25 01:11:27;;;;;;;20.30;9.85;;;22.10;99.90;;;;;;5067135;28;20160;-79
2023/07/25 01:13:55;;;;;;;17.52;9.35;;;22.00;99.90;;;;;;5067687;28;20037;-78
2023/07/25 01:16:24;;;;;;;18.48;9.75;;;22.00;99.90;;;;;;5069014;28;20040;-77
2023/07/25 01:18:53;;;;;;;27.65;14.02;;;22.10;99.90;;;;;;5067453;28;20492;-76
2023/07/25 01:21:22;;;;;;;19.48;9.63;;;22.10;99.90;;;;;;5070908;28;20036;-75
2023/07/25 01:23:50;;;;;;;19.00;8.77;;;22.10;99.90;;;;;;5067507;28;20051;-76
2023/07/25 01:26:20;;;;;;;19.88;8.80;;;22.20;99.90;;;;;;5083083;28;20159;-75
2023/07/25 01:28:48;;;;;;;22.65;9.40;;;22.30;99.90;;;;;;5068088;28;20113;-77
2023/07/25 01:31:15;;;;;;;21.92;9.15;;;22.40;99.90;;;;;;5072211;28;20078;-77
2023/07/25 01:33:42;;;;;;;15.15;8.95;;;22.30;99.90;;;;;;5076728;28;20139;-78
2023/07/25 01:36:11;;;;;;;21.02;8.30;;;22.10;99.90;;;;;;5072777;28;20557;-76
2023/07/25 01:38:38;;;;;;;20.95;8.73;;;22.00;99.90;;;;;;5071028;28;20052;-78
2023/07/25 01:41:06;;;;;;;20.92;9.13;;;22.10;99.90;;;;;;5071422;28;20037;-78
2023/07/25 01:43:35;;;;;;;20.17;9.50;;;22.20;99.90;;;;;;5072414;28;20127;-77
2023/07/25 01:46:02;;;;;;;17.00;8.57;;;22.40;99.90;;;;;;5088708;28;20035;-79
2023/07/25 01:48:30;;;;;;;22.77;9.35;;;22.50;99.90;;;;;;5085167;28;20138;-77
2023/07/25 01:50:58;;;;;;;22.65;10.02;;;22.60;99.90;;;;;;5074752;28;20044;-75
2023/07/25 01:53:25;;;;;;;20.48;8.52;;;22.70;99.90;;;;;;5072724;28;20480;-77
2023/07/25 01:55:53;;;;;;;19.15;8.48;;;22.70;99.90;;;;;;5070844;28;20569;-76
2023/07/25 01:58:20;;;;;;;23.08;8.73;;;22.60;99.90;;;;;;5070244;28;20051;-76
2023/07/25 02:00:49;;;;;;;18.92;9.23;;;22.60;99.90;;;;;;5069790;28;20050;-77
2023/07/25 02:03:18;;;;;;;19.55;7.50;;;22.50;99.90;;;;;;5070146;28;20132;-73
2023/07/25 02:05:45;;;;;;;21.80;9.88;;;22.50;99.90;;;;;;5066908;28;20131;-76
2023/07/25 02:08:14;;;;;;;23.90;9.50;;;22.50;99.90;;;;;;5068495;28;20538;-76
2023/07/25 02:10:41;;;;;;;19.75;8.65;;;22.50;99.90;;;;;;5069269;28;20059;-75
2023/07/25 02:13:09;;;;;;;19.20;8.25;;;22.60;99.90;;;;;;5061164;28;20485;-76
2023/07/25 02:15:37;;;;;;;17.55;8.10;;;22.70;99.90;;;;;;5071197;28;20098;-75
2023/07/25 02:18:07;;;;;;;17.02;7.82;;;22.70;99.90;;;;;;5071055;28;20136;-76
2023/07/25 02:20:34;;;;;;;16.13;8.00;;;22.70;99.90;;;;;;5069560;28;20194;-75
2023/07/25 02:23:02;;;;;;;21.15;7.82;;;22.50;99.90;;;;;;5069631;28;20059;-78
2023/07/25 02:25:30;;;;;;;18.20;8.05;;;22.40;99.90;;;;;;5069478;28;20033;-75
2023/07/25 02:27:57;;;;;;;19.30;7.85;;;22.50;99.90;;;;;;5071288;28;20040;-76
2023/07/25 02:30:24;;;;;;;25.13;8.00;;;22.40;99.90;;;;;;5069552;28;20049;-78
2023/07/25 02:32:52;;;;;;;27.33;9.52;;;22.30;99.90;;;;;;5069799;28;20500;-77
2023/07/25 02:35:20;;;;;;;19.83;8.43;;;22.20;99.90;;;;;;5070579;28;20045;-76
2023/07/25 02:37:48;;;;;;;17.05;8.50;;;22.20;99.90;;;;;;5069985;28;20500;-78
2023/07/25 02:40:15;;;;;;;19.67;8.23;;;22.20;99.90;;;;;;5069874;28;20040;-79
2023/07/25 02:42:42;;;;;;;19.65;8.20;;;22.30;99.90;;;;;;5074516;28;20051;-77
2023/07/25 02:45:11;;;;;;;17.92;8.55;;;22.20;99.90;;;;;;5070259;28;20080;-76
2023/07/25 02:47:38;;;;;;;18.55;8.27;;;22.20;99.90;;;;;;5071475;28;20040;-75
2023/07/25 02:50:06;;;;;;;25.38;9.95;;;22.00;99.90;;;;;;5073356;28;20114;-78
2023/07/25 02:52:35;;;;;;;17.42;8.57;;;22.00;99.90;;;;;;5070678;28;20037;-74
2023/07/25 02:55:03;;;;;;;16.63;7.50;;;22.10;99.90;;;;;;5071589;28;20036;-74
2023/07/25 02:57:30;;;;;;;14.25;8.05;;;21.90;99.90;;;;;;5074094;28;20087;-78
2023/07/25 02:59:58;;;;;;;18.05;8.27;;;21.90;99.90;;;;;;5078173;28;20319;-78
2023/07/25 03:02:25;;;;;;;16.77;7.72;;;21.90;99.90;;;;;;5072220;28;20052;-77
2023/07/25 03:04:52;;;;;;;14.98;7.63;;;22.00;99.90;;;;;;5071179;22;20058;-79
2023/07/25 03:07:19;;;;;;;17.17;7.80;;;22.00;99.90;;;;;;5009981;28;20074;-80
2023/07/25 03:09:48;;;;;;;16.10;7.90;;;22.00;99.90;;;;;;5009555;28;20092;-82
2023/07/25 03:12:15;;;;;;;17.40;7.93;;;22.00;99.90;;;;;;5009123;28;20053;-79
2023/07/25 03:14:43;;;;;;;20.80;7.65;;;22.00;99.90;;;;;;5006177;28;20042;-79
2023/07/25 03:17:10;;;;;;;22.63;7.90;;;22.00;99.90;;;;;;4999536;28;20058;-80
2023/07/25 03:19:37;;;;;;;18.60;8.10;;;21.90;99.90;;;;;;4997528;28;20167;-79
2023/07/25 03:22:05;;;;;;;18.77;7.53;;;21.90;99.90;;;;;;5000056;28;20050;-80
2023/07/25 03:24:32;;;;;;;18.55;8.52;;;21.90;99.90;;;;;;5001562;28;20043;-80
2023/07/25 03:27:01;;;;;;;17.35;8.13;;;21.80;99.90;;;;;;5000088;28;20108;-79
2023/07/25 03:29:29;;;;;;;17.75;8.15;;;21.70;99.90;;;;;;5005963;28;20042;-78
2023/07/25 03:31:56;;;;;;;18.08;8.00;;;21.60;99.90;;;;;;5006408;28;20128;-79
2023/07/25 03:34:23;;;;;;;19.70;8.35;;;21.70;99.90;;;;;;5013275;28;20081;-79
2023/07/25 03:36:51;;;;;;;20.50;7.72;;;21.80;99.90;;;;;;5000878;28;20045;-78
2023/07/25 03:39:18;;;;;;;17.15;7.45;;;21.70;99.90;;;;;;5000037;28;20072;-80
2023/07/25 03:41:46;;;;;;;23.17;8.75;;;21.60;99.90;;;;;;5006731;28;20121;-79
2023/07/25 03:44:17;;;;;;;21.67;8.55;;;21.60;99.90;;;;;;5005787;28;20058;-79
2023/07/25 03:46:45;;;;;;;21.52;7.63;;;21.60;99.90;;;;;;5000018;28;20073;-78
2023/07/25 03:49:14;;;;;;;22.30;8.05;;;21.70;99.90;;;;;;4998438;28;20078;-80
2023/07/25 03:51:42;;;;;;;17.20;7.97;;;21.60;99.90;;;;;;4999653;28;20058;-78
2023/07/25 03:54:09;;;;;;;16.58;7.97;;;21.60;99.90;;;;;;5023851;28;20671;-79
2023/07/25 03:56:37;;;;;;;16.38;7.57;;;21.60;99.90;;;;;;4998161;28;20137;-78
2023/07/25 03:59:04;;;;;;;23.80;9.10;;;21.70;99.90;;;;;;5005898;28;20513;-80
2023/07/25 04:01:33;;;;;;;21.63;7.75;;;21.90;99.90;;;;;;4999464;28;20112;-78
2023/07/25 04:04:00;;;;;;;16.33;7.68;;;22.10;99.90;;;;;;5005527;28;20057;-79
2023/07/25 04:06:28;;;;;;;21.73;7.80;;;22.20;99.90;;;;;;5000349;28;20064;-80
2023/07/25 04:08:55;;;;;;;19.48;7.63;;;22.30;99.90;;;;;;4997993;28;20489;-79
2023/07/25 04:11:22;;;;;;;19.70;8.20;;;22.40;99.90;;;;;;4997285;28;20502;-80
2023/07/25 04:13:49;;;;;;;19.10;7.72;;;22.50;99.90;;;;;;5003587;28;20046;-80
2023/07/25 04:16:17;;;;;;;23.20;8.07;;;22.60;99.90;;;;;;5003945;28;20048;-79
2023/07/25 04:18:46;;;;;;;22.95;8.27;;;22.30;99.90;;;;;;5000610;28;20037;-80
2023/07/25 04:21:13;;;;;;;19.85;8.25;;;22.20;99.90;;;;;;5002390;28;20069;-80
2023/07/25 04:23:41;;;;;;;20.00;7.53;;;22.30;99.90;;;;;;5023398;28;20065;-79
2023/07/25 04:26:08;;;;;;;22.40;7.95;;;22.40;99.90;;;;;;5030032;28;20049;-79
2023/07/25 04:28:35;;;;;;;17.45;7.28;;;22.70;99.90;;;;;;5017922;28;20046;-80
2023/07/25 04:31:02;;;;;;;18.35;7.35;;;23.00;99.90;;;;;;5012711;28;20398;-79
2023/07/25 04:33:30;;;;;;;24.10;7.93;;;23.40;99.90;;;;;;5003522;28;20077;-81
2023/07/25 04:35:58;;;;;;;18.25;7.88;;;23.70;99.90;;;;;;5000414;28;20572;-81
2023/07/25 04:38:26;;;;;;;21.77;7.95;;;23.90;99.90;;;;;;4995994;28;20042;-79
2023/07/25 04:40:53;;;;;;;29.55;8.50;;;24.30;99.90;;;;;;5004405;28;20050;-81
2023/07/25 04:43:20;;;;;;;22.70;7.75;;;24.40;99.90;;;;;;5001987;28;20049;-80
2023/07/25 04:45:47;;;;;;;21.10;8.43;;;24.60;99.90;;;;;;4999775;28;20042;-78
2023/07/25 04:48:15;;;;;;;21.58;8.35;;;24.90;99.90;;;;;;4998447;28;20039;-80
2023/07/25 04:50:42;;;;;;;19.13;8.98;;;24.90;99.90;;;;;;4999952;28;20042;-80
2023/07/25 04:53:11;;;;;;;18.83;8.40;;;25.00;99.90;;;;;;4998958;28;20038;-79
2023/07/25 04:55:38;;;;;;;21.38;7.88;;;25.10;99.90;;;;;;4999106;28;20038;-79
2023/07/25 04:58:05;;;;;;;28.42;9.35;;;25.20;99.90;;;;;;4996705;28;20124;-80
2023/07/25 05:00:32;;;;;;;22.20;9.05;;;25.20;99.90;;;;;;4998795;28;20054;-79
2023/07/25 05:03:00;;;;;;;21.15;8.50;;;25.80;99.90;;;;;;5001241;28;20037;-79
2023/07/25 05:05:27;;;;;;;21.20;7.93;;;25.90;99.90;;;;;;4997683;28;20081;-79
2023/07/25 05:07:55;;;;;;;18.83;8.38;;;26.10;99.90;;;;;;5000314;28;20047;-79
2023/07/25 05:10:24;;;;;;;24.92;8.15;;;26.10;99.90;;;;;;5001369;28;20132;-79
2023/07/25 05:12:52;;;;;;;23.10;8.60;;;25.70;99.90;;;;;;5002638;28;20037;-80
2023/07/25 05:15:19;;;;;;;25.77;9.30;;;26.00;99.90;;;;;;4999245;28;20647;-78
2023/07/25 05:17:47;;;;;;;25.52;9.82;;;26.40;99.90;;;;;;5002540;28;20070;-79
2023/07/25 05:20:14;;;;;;;21.83;8.90;;;26.80;99.90;;;;;;5024989;28;20482;-80
2023/07/25 05:22:42;;;;;;;30.17;10.20;;;27.20;99.90;;;;;;5001736;28;20038;-78
2023/07/25 05:25:09;;;;;;;18.00;9.77;;;27.60;99.90;;;;;;5002699;28;20397;-78
2023/07/25 05:27:38;;;;;;;19.23;10.02;;;27.80;99.90;;;;;;5003891;28;20485;-79
2023/07/25 05:30:07;;;;;;;21.63;10.55;;;28.00;99.90;;;;;;5007971;28;20038;-79
2023/07/25 05:32:34;;;;;;;19.23;9.82;;;27.90;99.90;;;;;;5006920;28;20109;-79
2023/07/25 05:35:02;;;;;;;18.85;10.15;;;28.40;99.90;;;;;;4998516;28;20156;-78
2023/07/25 05:37:35;;;;;;;26.27;13.02;;;28.70;99.90;;;;;;5000483;28;20074;-79
2023/07/25 05:40:03;;;;;;;21.85;12.18;;;28.50;99.90;;;;;;5001522;28;20052;-79
2023/07/25 05:42:30;;;;;;;21.45;10.50;;;28.40;99.90;;;;;;4999868;28;20132;-82
2023/07/25 05:45:00;;;;;;;23.92;10.93;;;29.00;99.90;;;;;;5003482;28;20077;-81
2023/07/25 05:47:27;;;;;;;22.13;11.15;;;29.30;99.90;;;;;;5003193;28;20046;-80
2023/07/25 05:49:56;;;;;;;17.55;10.70;;;29.60;99.90;;;;;;5001806;28;20042;-80
2023/07/25 05:52:23;;;;;;;18.08;10.95;;;29.60;99.90;;;;;;4999908;28;20046;-81
2023/07/25 05:54:51;;;;;;;21.70;10.88;;;29.80;99.90;;;;;;5000692;28;20084;-80
2023/07/25 05:57:18;;;;;;;24.95;10.63;;;29.90;99.90;;;;;;5004019;28;20419;-81
2023/07/25 05:59:46;;;;;;;26.98;11.52;;;30.10;99.90;;;;;;5001893;28;20113;-80
2023/07/25 06:02:16;;;;;;;19.73;10.82;;;30.20;99.90;;;;;;4998857;28;20055;-80
2023/07/25 06:04:46;;;;;;;23.70;10.95;;;30.00;99.90;;;;;;5002120;28;20069;-81
2023/07/25 06:07:14;;;;;;;20.05;10.65;;;30.20;99.90;;;;;;5000081;28;20049;-80
2023/07/25 06:09:41;;;;;;;22.10;10.77;;;30.10;99.90;;;;;;5002168;28;20478;-78
2023/07/25 06:12:09;;;;;;;23.55;10.38;;;30.40;99.90;;;;;;5016566;28;20034;-80
2023/07/25 06:14:38;;;;;;;21.55;11.30;;;30.60;99.90;;;;;;5025606;28;20038;-82
2023/07/25 06:17:05;;;;;;;21.17;9.80;;;30.60;99.90;;;;;;5024437;28;20049;-80
2023/07/25 06:19:35;;;;;;;23.77;10.68;;;30.70;99.90;;;;;;5015050;28;20096;-80
2023/07/25 06:22:02;;;;;;;21.23;10.63;;;30.80;99.90;;;;;;5003102;28;20050;-80
2023/07/25 06:24:29;;;;;;;24.45;10.38;;;30.80;99.90;;;;;;5003604;28;20044;-79
2023/07/25 06:26:57;;;;;;;23.73;11.15;;;30.90;99.90;;;;;;5003308;28;20081;-80
2023/07/25 06:29:24;;;;;;;24.55;10.77;;;31.00;99.90;;;;;;5001892;28;20093;-79
2023/07/25 06:31:51;;;;;;;24.08;10.23;;;31.00;99.90;;;;;;5001327;28;20045;-80
2023/07/25 06:34:19;;;;;;;24.10;10.85;;;30.90;99.90;;;;;;5001280;28;20062;-78
2023/07/25 06:36:47;;;;;;;22.55;11.65;;;30.90;99.90;;;;;;5001715;28;20053;-80
2023/07/25 06:39:15;;;;;;;27.60;11.68;;;31.00;99.90;;;;;;4999189;28;20042;-79
2023/07/25 06:41:42;;;;;;;23.98;12.18;;;31.00;99.90;;;;;;5000106;28;20109;-79
2023/07/25 06:44:15;;;;;;;23.45;10.52;;;31.00;99.90;;;;;;5001037;28;20053;-78
2023/07/25 06:46:43;;;;;;;24.15;10.90;;;30.90;99.90;;;;;;5000315;28;20661;-79
2023/07/25 06:49:10;;;;;;;19.30;10.10;;;30.60;99.90;;;;;;5008187;28;20096;-81
2023/07/25 06:51:37;;;;;;;21.00;9.90;;;30.20;99.90;;;;;;5003279;28;20053;-80
2023/07/25 06:54:06;;;;;;;21.27;10.35;;;30.70;99.90;;;;;;5000501;28;20112;-80
2023/07/25 06:56:33;;;;;;;22.52;10.43;;;30.90;99.90;;;;;;5002220;28;20070;-79
2023/07/25 06:59:00;;;;;;;25.33;9.98;;;30.60;99.90;;;;;;5013430;28;20101;-80
2023/07/25 07:01:28;;;;;;;26.02;12.35;;;30.20;99.90;;;;;;5009101;28;20049;-85
2023/07/25 07:03:56;;;;;;;19.02;10.55;;;30.70;99.90;;;;;;5021199;28;20092;-82
2023/07/25 07:06:29;;;;;;;18.10;10.80;;;31.00;99.90;;;;;;5018283;28;20118;-84
2023/07/25 07:09:04;;;;;;;20.50;10.23;;;31.20;99.90;;;;;;5005774;28;20037;-87
2023/07/25 07:11:33;;;;;;;26.90;11.57;;;30.90;99.90;;;;;;5007418;28;20046;-84
2023/07/25 07:14:00;;;;;;;19.40;10.93;;;30.80;99.90;;;;;;5013528;28;20296;-86
2023/07/25 07:16:32;;;;;;;28.88;16.05;;;30.90;99.90;;;;;;5025422;28;20109;-83
2023/07/25 07:19:04;;;;;;;25.40;12.85;;;31.20;99.90;;;;;;5027882;28;20069;-81
2023/07/25 07:21:32;;;;;;;17.33;10.43;;;31.40;99.90;;;;;;5045997;28;20046;-86
2023/07/25 07:24:00;;;;;;;52.28;39.50;;;31.60;99.90;;;;;;5003558;28;20065;-82
2023/07/25 07:26:27;;;;;;;27.10;11.27;;;31.30;99.90;;;;;;5002280;28;20042;-83
2023/07/25 07:28:56;;;;;;;24.02;12.60;;;31.30;99.90;;;;;;5014647;28;20049;-83
2023/07/25 07:31:25;;;;;;;34.80;21.95;;;31.40;99.90;;;;;;5024424;28;20046;-82
2023/07/25 07:33:53;;;;;;;18.38;10.43;;;31.50;99.90;;;;;;5006678;28;20054;-82
2023/07/25 07:36:20;;;;;;;23.70;10.23;;;31.80;99.90;;;;;;5000444;28;20057;-82
2023/07/25 07:38:48;;;;;;;21.17;9.95;;;32.70;99.90;;;;;;5002947;28;20450;-82
2023/07/25 07:41:15;;;;;;;21.85;10.90;;;33.30;99.90;;;;;;5005027;28;20437;-83
2023/07/25 07:43:42;;;;;;;17.65;10.35;;;33.60;99.90;;;;;;5002761;28;20089;-83
2023/07/25 07:46:11;;;;;;;25.38;10.95;;;33.70;99.90;;;;;;4998390;28;20064;-82
2023/07/25 07:48:40;;;;;;;20.30;10.63;;;33.80;99.90;;;;;;4998942;28;20046;-83
2023/07/25 07:51:08;;;;;;;23.52;11.88;;;33.80;99.90;;;;;;5001762;28;20053;-82
2023/07/25 07:53:35;;;;;;;20.48;12.13;;;33.60;99.90;;;;;;5002798;28;20146;-82
2023/07/25 07:56:04;;;;;;;19.38;10.50;;;33.40;99.90;;;;;;4998083;28;20039;-83
2023/07/25 07:58:31;;;;;;;25.75;11.32;;;33.40;99.90;;;;;;5000031;28;20116;-82
2023/07/25 08:00:59;;;;;;;22.70;10.32;;;33.50;99.90;;;;;;5001249;28;20070;-81
2023/07/25 08:03:28;;;;;;;20.52;9.98;;;33.60;99.90;;;;;;5000530;28;20052;-83
2023/07/25 08:05:57;;;;;;;22.33;11.02;;;33.70;99.90;;;;;;4999315;28;20042;-83
2023/07/25 08:08:24;;;;;;;18.75;10.18;;;33.70;99.90;;;;;;4999942;28;20066;-83
2023/07/25 08:10:51;;;;;;;22.13;9.98;;;33.60;99.90;;;;;;4997472;28;20043;-83
2023/07/25 08:13:19;;;;;;;23.13;9.93;;;33.40;99.90;;;;;;4999206;28;20133;-83
2023/07/25 08:15:47;;;;;;;23.85;10.02;;;32.80;99.90;;;;;;4999522;28;20059;-82
2023/07/25 08:18:14;;;;;;;19.90;9.60;;;32.90;99.90;;;;;;5000333;28;20039;-82
2023/07/25 08:20:44;;;;;;;17.15;10.25;;;33.30;99.90;;;;;;5014127;28;20100;-81
2023/07/25 08:23:12;;;;;;;19.65;9.18;;;33.60;99.90;;;;;;4999535;28;20108;-81
2023/07/25 08:25:39;;;;;;;18.35;9.32;;;33.90;99.90;;;;;;5005633;28;20054;-83
2023/07/25 08:28:06;;;;;;;23.20;9.57;;;34.20;99.90;;;;;;5024578;28;20030;-83
2023/07/25 08:30:34;;;;;;;23.35;9.60;;;34.20;99.90;;;;;;5021126;28;20042;-81
2023/07/25 08:33:02;;;;;;;19.13;8.95;;;34.20;99.90;;;;;;5019848;28;20050;-83
2023/07/25 08:35:29;;;;;;;18.33;8.80;;;34.30;99.90;;;;;;5021494;28;20035;-81
2023/07/25 08:37:57;;;;;;;29.42;10.38;;;34.40;99.90;;;;;;5021518;28;20084;-80
2023/07/25 08:40:25;;;;;;;19.08;8.95;;;34.50;99.90;;;;;;5005865;28;20046;-81
2023/07/25 08:42:57;;;;;;;25.13;11.20;;;34.60;99.90;;;;;;4997632;28;20038;-81
2023/07/25 08:45:25;;;;;;;25.05;9.57;;;34.80;99.90;;;;;;4999830;28;20038;-83
2023/07/25 08:47:56;;;;;;;21.95;9.70;;;34.90;99.90;;;;;;4999249;28;20108;-81
2023/07/25 08:50:25;;;;;;;24.25;9.77;;;35.00;99.90;;;;;;4999731;28;20050;-83
2023/07/25 08:52:56;;;;;;;22.23;9.77;;;35.20;99.90;;;;;;4997602;28;20046;-83
2023/07/25 08:55:25;;;;;;;20.65;9.40;;;35.40;99.90;;;;;;4998806;28;20100;-82
2023/07/25 08:57:53;;;;;;;20.95;10.10;;;35.40;99.90;;;;;;4998383;28;20639;-82
2023/07/25 09:00:22;;;;;;;27.50;9.75;;;35.50;99.90;;;;;;4999148;28;20096;-83
2023/07/25 09:02:52;;;;;;;16.88;8.65;;;35.40;99.90;;;;;;4998929;28;20497;-83
2023/07/25 09:05:19;;;;;;;24.70;9.70;;;35.40;99.90;;;;;;4998449;28;20039;-84
2023/07/25 09:07:46;;;;;;;18.30;9.40;;;35.40;99.90;;;;;;4999229;28;20089;-81
2023/07/25 09:10:14;;;;;;;17.00;8.50;;;35.50;99.90;;;;;;4998615;28;20233;-83
2023/07/25 09:12:42;;;;;;;24.65;9.40;;;35.60;99.90;;;;;;4997313;28;20050;-83
2023/07/25 09:15:10;;;;;;;22.10;9.48;;;35.70;99.90;;;;;;4998933;28;20065;-81
2023/07/25 09:17:38;;;;;;;18.50;9.18;;;35.80;99.90;;;;;;4999264;28;20053;-81
2023/07/25 09:20:08;;;;;;;21.85;8.88;;;35.80;99.90;;;;;;4998933;28;20051;-81
2023/07/25 09:22:35;;;;;;;22.10;9.32;;;35.80;99.90;;;;;;4998812;28;20125;-82
2023/07/25 09:25:09;;;;;;;20.95;10.13;;;35.80;99.90;;;;;;4998688;28;20470;-83
2023/07/25 09:27:36;;;;;;;22.90;9.10;;;36.10;99.90;;;;;;4999608;28;20046;-81
2023/07/25 09:30:12;;;;;;;23.20;9.25;;;36.40;99.90;;;;;;4996646;28;20085;-82
2023/07/25 09:32:44;;;;;;;21.70;8.55;;;36.50;99.90;;;;;;4997800;28;20367;-82
2023/07/25 09:35:11;;;;;;;19.90;9.60;;;36.50;99.90;;;;;;4998184;28;20504;-81
2023/07/25 09:37:39;;;;;;;22.17;9.13;;;36.80;99.90;;;;;;5002360;28;20422;-83
2023/07/25 09:40:10;;;;;;;23.00;10.23;;;36.80;99.90;;;;;;5012386;28;20069;-80
2023/07/25 09:42:41;;;;;;;25.25;9.45;;;36.60;99.90;;;;;;5003385;28;20053;-82
2023/07/25 09:45:12;;;;;;;20.58;8.40;;;36.40;99.90;;;;;;5002802;28;20058;-81
2023/07/25 09:47:40;;;;;;;20.50;9.45;;;36.20;99.90;;;;;;5024837;28;20084;-82
2023/07/25 09:50:07;;;;;;;20.30;8.88;;;36.10;99.90;;;;;;5024719;28;20072;-83
2023/07/25 09:52:42;;;;;;;21.85;8.93;;;36.10;99.90;;;;;;5023572;28;20033;-82
2023/07/25 09:55:10;;;;;;;20.70;9.13;;;36.20;99.90;;;;;;5023673;28;20043;-82
2023/07/25 09:57:37;;;;;;;23.50;9.57;;;36.20;99.90;;;;;;5004971;28;20505;-84
2023/07/25 10:00:06;;;;;;;22.10;9.48;;;36.20;99.90;;;;;;5005291;28;20045;-81
2023/07/25 10:02:38;;;;;;;24.70;8.73;;;36.30;99.90;;;;;;5005457;28;20560;-81
2023/07/25 10:05:07;;;;;;;23.35;9.25;;;36.60;99.90;;;;;;4998206;28;20046;-83
2023/07/25 10:07:35;;;;;;;25.23;9.50;;;36.70;99.90;;;;;;5008106;28;20050;-82
2023/07/25 10:10:04;;;;;;;23.83;9.60;;;36.80;99.90;;;;;;5004169;28;20038;-83
2023/07/25 10:12:31;;;;;;;18.90;9.05;;;36.90;99.90;;;;;;5002967;28;20208;-83
2023/07/25 10:14:58;;;;;;;16.30;7.85;;;37.00;99.90;;;;;;5002664;28;20088;-82
2023/07/25 10:17:26;;;;;;;27.25;8.93;;;37.30;99.90;;;;;;4999202;28;20536;-82
2023/07/25 10:19:55;;;;;;;17.90;8.73;;;37.60;99.90;;;;;;5000101;28;20046;-82
2023/07/25 10:22:39;;;;;;;26.40;9.32;;;37.70;99.90;;;;;;5002430;28;20053;-82
2023/07/25 10:25:10;;;;;;;21.90;9.70;;;37.60;99.90;;;;;;4998057;28;20046;-83
2023/07/25 10:27:38;;;;;;;19.65;9.07;;;37.50;99.90;;;;;;5000378;28;20665;-83
2023/07/25 10:30:22;;;;;;;24.05;9.57;;;37.40;99.90;;;;;;5000994;28;20041;-83
2023/07/25 10:32:52;;;;;;;22.47;9.57;;;37.40;99.90;;;;;;5001298;28;20501;-85
2023/07/25 10:35:43;;;;;;;20.95;10.30;;;37.40;99.90;;;;;;4998664;28;20042;-84
2023/07/25 10:38:12;;;;;;;22.05;10.82;;;37.50;99.90;;;;;;5002144;28;20116;-82
2023/07/25 10:40:56;;;;;;;26.80;10.00;;;37.60;99.90;;;;;;5013298;28;20061;-84
2023/07/25 10:43:27;;;;;;;25.25;10.27;;;37.90;99.90;;;;;;5024909;28;20034;-82
2023/07/25 10:45:55;;;;;;;21.90;9.10;;;38.20;99.90;;;;;;5018436;28;20049;-83
2023/07/25 10:48:34;;;;;;;22.90;9.40;;;38.30;99.90;;;;;;5027132;28;20077;-83
2023/07/25 10:51:08;;;;;;;21.08;9.35;;;38.40;99.90;;;;;;5000410;28;20150;-84
2023/07/25 10:53:36;;;;;;;26.45;10.98;;;38.30;99.90;;;;;;5001247;28;20042;-82
2023/07/25 10:56:13;;;;;;;27.30;10.40;;;38.40;99.90;;;;;;5003569;28;20068;-83
2023/07/25 10:59:02;;;;;;;28.27;10.88;;;38.50;99.90;;;;;;5001660;28;20049;-82
2023/07/25 11:01:36;;;;;;;27.63;9.18;;;38.50;99.90;;;;;;5001373;28;20046;-84
2023/07/25 11:04:29;;;;;;;26.25;10.70;;;38.50;99.90;;;;;;5023211;28;20042;-82
2023/07/25 11:06:59;;;;;;;27.52;11.30;;;38.30;99.90;;;;;;5007116;28;20100;-84
2023/07/25 11:09:27;;;;;;;21.08;10.57;;;38.10;99.90;;;;;;5001360;28;20092;-88
2023/07/25 11:11:56;;;;;;;25.13;12.68;;;37.90;99.90;;;;;;5023125;28;20042;-80
2023/07/25 11:14:23;;;;;;;28.00;12.60;;;37.80;99.90;;;;;;4997915;28;20042;-80
2023/07/25 11:16:54;;;;;;;29.63;11.57;;;37.20;99.90;;;;;;5002490;28;20137;-90
2023/07/25 11:19:28;;;;;;;121.15;96.97;;;36.50;99.90;;;;;;4999795;28;20049;-81
2023/07/25 11:21:58;;;;;;;318.30;281.17;;;36.30;99.90;;;;;;4998530;28;20042;-80
2023/07/25 11:24:25;;;;;;;453.05;398.40;;;36.10;99.90;;;;;;5022528;28;20039;-82
2023/07/25 11:26:52;;;;;;;93.50;72.28;;;36.10;99.90;;;;;;4999128;28;20096;-82
2023/07/25 11:29:20;;;;;;;358.88;321.10;;;36.10;99.90;;;;;;4999974;28;20070;-82
2023/07/25 11:31:49;;;;;;;80.85;59.75;;;36.30;99.90;;;;;;5023737;28;20042;-80
2023/07/25 11:34:20;;;;;;;34.33;16.50;;;36.50;99.90;;;;;;5000810;28;20096;-81
2023/07/25 11:36:47;;;;;;;57.80;40.78;;;36.50;99.90;;;;;;4999277;28;20454;-81
2023/07/25 11:39:18;;;;;;;67.20;50.72;;;36.40;99.90;;;;;;4999758;28;20057;-79
2023/07/25 11:41:46;;;;;;;37.28;18.02;;;36.10;99.90;;;;;;5020916;28;20040;-80
2023/07/25 11:44:15;;;;;;;30.33;19.05;;;35.80;99.90;;;;;;5022272;28;20054;-79
2023/07/25 11:46:44;;;;;;;22.92;12.48;;;35.60;99.90;;;;;;5017178;28;20046;-80
2023/07/25 11:49:16;;;;;;;28.45;14.43;;;35.40;99.90;;;;;;5005937;28;20193;-78
2023/07/25 11:51:44;;;;;;;27.70;13.38;;;35.30;99.90;;;;;;5003387;28;20066;-78
2023/07/25 11:54:11;;;;;;;34.50;12.75;;;35.20;99.90;;;;;;4999082;28;20069;-78
2023/07/25 11:56:40;;;;;;;28.80;12.27;;;35.10;99.90;;;;;;5000384;28;20112;-79
2023/07/25 11:59:12;;;;;;;27.27;12.20;;;34.90;99.90;;;;;;4998903;28;20058;-77
2023/07/25 12:01:39;;;;;;;26.25;11.57;;;34.80;99.90;;;;;;4999527;28;20046;-79
2023/07/25 12:04:15;;;;;;;21.80;11.40;;;34.70;99.90;;;;;;4999853;28;20065;-80
2023/07/25 12:06:43;;;;;;;25.08;12.10;;;34.50;99.90;;;;;;4999886;28;20426;-80
2023/07/25 12:09:10;;;;;;;24.50;10.57;;;34.60;99.90;;;;;;5022383;28;20431;-78
2023/07/25 12:11:45;;;;;;;26.52;11.27;;;34.40;99.90;;;;;;4998090;28;20129;-79
2023/07/25 12:14:13;;;;;;;23.35;11.25;;;33.90;99.90;;;;;;4998718;28;20050;-79
2023/07/25 12:16:45;;;;;;;19.38;9.93;;;33.00;99.90;;;;;;4997028;28;20177;-77
2023/07/25 12:19:13;;;;;;;22.58;11.07;;;32.30;99.90;;;;;;4998763;28;20092;-78
2023/07/25 12:21:42;;;;;;;21.75;9.63;;;32.20;99.90;;;;;;4998160;28;20109;-78
2023/07/25 12:24:11;;;;;;;25.35;12.75;;;32.00;99.90;;;;;;4998694;28;20077;-78
2023/07/25 12:26:46;;;;;;;22.00;10.48;;;32.10;99.90;;;;;;4998202;28;20072;-80
2023/07/25 12:29:14;;;;;;;23.17;9.40;;;32.10;99.90;;;;;;4997153;28;20622;-79
2023/07/25 12:31:42;;;;;;;19.42;9.30;;;32.50;99.90;;;;;;4999265;28;20046;-77
2023/07/25 12:34:10;;;;;;;22.50;10.43;;;33.00;99.90;;;;;;4999267;28;20069;-78
2023/07/25 12:36:38;;;;;;;20.73;8.98;;;33.40;99.90;;;;;;5001320;28;20050;-78
2023/07/25 12:39:05;;;;;;;19.05;9.20;;;33.20;99.90;;;;;;4999513;28;20068;-79
2023/07/25 12:41:33;;;;;;;23.52;8.82;;;32.60;99.90;;;;;;4999731;28;20121;-80